Kezdőlap
METAR-TAF:

METAR-TAF

Repülőterek :

Caracas, Venezuela

földrajzi szélesség: 10-36N, földrajzi hosszúság: 066-59W, magasság: 43 m

Jelenlegi meteorológiai megfigyelések

A jelentés 1 órával és 3 perccel ezelõtt készült, 14:00 UTC
Hőmérséklet 28°C
Páratartalom 66%
Légköri nyomás 1012 hPa
Látótávolság 10 km, vagy több
Kevés felhő 1600 lábon

METAR: SVMI 191400Z /////KT 9999 FEW016 28/21 Q1012

Idő: 11:03 (15:03 UTC)

Előrejelzés

A jelentés 5 órával és 3 perccel ezelõtt készült, 10:00 UTC
Az előrejelzés 19-én 12 óra UTC és 20-én 12 óra UTC között érvényes
Keleti szél 6 kt
Látótávolság 10 km, vagy több
Kevés felhő 1600 lábon
Szórványos felhőzet 10000 lábon
19-én 11 óra UTC és 19-én 15 óra UTC között fokozatosan kialakuló
Keleti szél 9 kt

TAF: SVMI 191000Z 1912/2012 09006KT 9999 FEW016 SCT100 TX33/17Z TN23/08Z BECMG 1911/1915 09009KT

Meteorológiai megfigyelések és előrejelzések több, mint 4000 repülőtéren (METAR és TAF jelentéseket).

A térképen piros és sárga pontok jelzik az elérhető meteorológiai állomásokat.

Mozgassa az egeret a pont fölött, hogy megjelenjen az állomás neve.

Azután kattintson az időjárási megfigyelések és előrejelzések megtekintéséhez.

A térkép megváltoztatása: kattintson a fekete keresztel jelölt zöld gombra ráközelítéshez, a vonallal jelölt zöld gombra távolításhoz, vagy a zöld nyilakra a szomszédos térképek eléréséhez.


METAR-TAF: